Aeroporto :
LOGIN :

Iscrizione | Disclaimer

   EN    FR    IT 

 










Sommario :    VFR   VFR Marginale   IFR   IFR Intensivo   IFR Molto Intensivo
Visibilità : 
Base nubi : 
>= 8 km
>= 3000ft
5 / 8 km
1000 / 3000 ft
1500m / 5 km
500 / 1000 ft
800 / 1500m
200 / 500 ft
< 800m
< 200 ft
Simboli :   Temporali  Nebbia  Neve Forte  Precipitazioni Forti  Vento > 20 kt
SIGMETs :   Varie  Temporali  Ghiacco  Turbolenza  Onda orograficha  Ceneri Vulcaniche






- Altitudine del aeroporto : 14 ft
- Codice IATA : BRE


EDDW - Bremen Neuenland

ULTIMO METAR :
  • 301950Z 02009KT 9999 FEW041 04/01 Q1028 NOSIG

METARs OBSOLETI :
  • 301920Z 31002KT 9999 FEW023 03/02 Q1027 NOSIG
  • 301850Z VRB01KT 9999 FEW023 03/02 Q1027 NOSIG
  • 301820Z 03003KT 340V150 9999 FEW027 04/03 Q1026 NOSIG
  • 301750Z 05004KT 9999 FEW022 04/02 Q1026 NOSIG

TAF TAF EDDW
Valido dal 30 a 18 ore il 31 a 18 ore UTC


301700Z 3018/3118 04004KT 9999 FEW020
BECMG 3113/3115 32005KT



MetMap, La meteo Aeronautica in un colpo d'occhio ! - Copyright ORBIFLY Dicembre 2007 - Disclaimer

ORBIFLY MET'MAP TEAM :

Programmazione e sviluppo : Alexandra Zaïnal
Concezione : Baudouin d'Aumeries
Aiuto per la programmazione : Marc-Olivier Méhu
Supporto tecnico e logistico : Manuel Goepfert
Aiuto per la traduzione : Arnaldo La Scala

Contatto : metmap@orbifly.com




FONTI E CREDITI :

   NOAA